Time;durP1;ratioP1;P1;durP2;ratioP2;P2;SDS_P1;SDS_P2;PMS_P1;PMS_P2;Temp;Humidity;BMP_temperature;BMP_pressure;BME280_temperature;BME280_humidity;BME280_pressure;Samples;Min_cycle;Max_cycle;Signal;HPM_P1;HPM_P2
2023/03/08 00:03:06;;;;;;;7.80;3.78;;;;;;;4.95;90.50;98297.44;12195544;19;20094;-80
2023/03/08 00:07:08;;;;;;;8.50;3.83;;;;;;;4.87;92.08;98293.22;12197480;19;20007;-80
2023/03/08 00:11:11;;;;;;;7.38;3.63;;;;;;;4.83;92.19;98296.72;12172922;19;20015;-80
2023/03/08 00:15:13;;;;;;;7.03;2.83;;;;;;;4.77;93.46;98301.25;12185331;19;20003;-79
2023/03/08 00:19:15;;;;;;;5.20;2.27;;;;;;;4.70;95.32;98304.16;12186150;19;20010;-79
2023/03/08 00:23:17;;;;;;;4.60;2.70;;;;;;;4.61;94.92;98299.34;12188816;19;20371;-79
2023/03/08 00:27:18;;;;;;;6.13;2.40;;;;;;;4.59;94.86;98298.78;12193422;19;20088;-80
2023/03/08 00:31:20;;;;;;;4.88;2.67;;;;;;;4.56;95.43;98292.75;12169586;19;20070;-79
2023/03/08 00:35:22;;;;;;;5.68;2.53;;;;;;;4.55;95.42;98295.72;12193675;19;20007;-79
2023/03/08 00:39:24;;;;;;;6.57;2.22;;;;;;;4.55;95.00;98293.84;12196485;19;20073;-79
2023/03/08 00:43:26;;;;;;;4.20;2.35;;;;;;;4.57;94.55;98296.28;12173547;19;20006;-80
2023/03/08 00:47:28;;;;;;;6.25;2.38;;;;;;;4.55;95.00;98285.66;12194492;19;20023;-80
2023/03/08 00:51:30;;;;;;;4.40;2.20;;;;;;;4.63;94.73;98287.13;12195141;19;20003;-80
2023/03/08 00:55:31;;;;;;;4.93;2.08;;;;;;;4.66;94.81;98280.34;12170402;19;20045;-80
2023/03/08 00:59:33;;;;;;;4.65;2.00;;;;;;;4.71;95.09;98272.25;12195203;19;20487;-80
2023/03/08 01:03:34;;;;;;;4.00;2.03;;;;;;;4.75;94.92;98271.47;12191166;19;20003;-80
2023/03/08 01:07:36;;;;;;;5.45;2.33;;;;;;;4.74;95.08;98266.28;12166041;19;20982;-80
2023/03/08 01:11:38;;;;;;;4.28;2.13;;;;;;;4.77;95.52;98263.88;12188829;19;20014;-80
2023/03/08 01:15:40;;;;;;;6.45;2.53;;;;;;;4.82;94.77;98259.56;12193747;19;20035;-80
2023/03/08 01:19:42;;;;;;;4.93;2.35;;;;;;;4.81;94.83;98261.47;12172641;19;20349;-80
2023/03/08 01:23:43;;;;;;;5.38;2.45;;;;;;;4.81;95.17;98261.47;12194805;19;20015;-80
2023/03/08 01:27:45;;;;;;;6.03;2.60;;;;;;;4.88;95.34;98264.00;12195158;19;20013;-80
2023/03/08 01:31:47;;;;;;;10.60;3.70;;;;;;;4.89;94.68;98258.31;12177926;19;20408;-80
2023/03/08 01:35:48;;;;;;;7.03;3.00;;;;;;;4.91;94.58;98256.19;12196315;19;20087;-80
2023/03/08 01:39:50;;;;;;;6.32;3.42;;;;;;;4.93;94.80;98254.00;12199373;19;20021;-79
2023/03/08 01:43:52;;;;;;;7.45;3.05;;;;;;;4.95;94.43;98242.84;12181679;19;20059;-79
2023/03/08 01:47:54;;;;;;;7.33;3.00;;;;;;;4.95;94.55;98235.47;12214377;19;20011;-79
2023/03/08 01:52:11;;;;;;;8.07;3.47;;;;;;;4.95;93.79;98230.03;12206619;19;20003;-78
2023/03/08 01:56:16;;;;;;;7.00;3.42;;;;;;;4.99;93.63;98230.34;12182348;19;20003;-78
2023/03/08 02:00:25;;;;;;;8.63;3.78;;;;;;;5.01;93.14;98231.72;12213168;19;20011;-79
2023/03/08 02:04:27;;;;;;;10.43;3.90;;;;;;;5.02;92.34;98225.19;12235275;19;20013;-79
2023/03/08 02:08:31;;;;;;;9.93;4.20;;;;;;;5.05;91.78;98218.41;12257964;19;20001;-79
2023/03/08 02:12:34;;;;;;;10.07;4.07;;;;;;;5.08;90.94;98214.34;12258749;19;20307;-79
2023/03/08 02:16:36;;;;;;;;;;;;;;;5.08;85.80;98206.97;12237532;19;20019;-79
2023/03/08 02:20:39;;;;;;;12.50;5.30;;;;;;;5.18;82.62;98206.31;12259795;19;19918;-80
2023/03/08 02:24:41;;;;;;;12.70;5.57;;;;;;;5.25;79.00;98193.25;12265636;19;20011;-80
2023/03/08 02:28:45;;;;;;;13.50;5.78;;;;;;;5.34;77.44;98188.19;12245849;19;20080;-80
2023/03/08 02:32:47;;;;;;;11.07;5.33;;;;;;;5.40;75.64;98184.44;12259975;19;20014;-80
2023/03/08 02:36:48;;;;;;;12.18;6.07;;;;;;;5.44;74.56;98182.81;12230995;19;20006;-80
2023/03/08 02:40:52;;;;;;;14.20;6.25;;;;;;;5.45;71.81;98179.84;12206413;19;20010;-80
2023/03/08 02:44:53;;;;;;;12.25;5.63;;;;;;;5.49;71.49;98170.03;12226803;19;20003;-80
2023/03/08 02:48:55;;;;;;;13.15;5.80;;;;;;;5.52;70.58;98159.69;12227870;19;20010;-80
2023/03/08 02:52:57;;;;;;;14.48;5.72;;;;;;;5.51;69.75;98169.81;12208724;19;20015;-81
2023/03/08 02:56:59;;;;;;;11.50;5.72;;;;;;;5.54;70.15;98161.09;12245703;19;20011;-79
2023/03/08 03:01:10;;;;;;;;;;;;;;;5.54;69.79;98152.91;12257975;19;20022;-79
2023/03/08 03:05:12;;;;;;;12.32;5.18;;;;;;;5.54;69.00;98157.53;12256966;19;19950;-80
2023/03/08 03:09:15;;;;;;;12.77;5.30;;;;;;;5.55;69.58;98151.81;12253186;19;20066;-80
2023/03/08 03:13:19;;;;;;;13.85;5.93;;;;;;;5.57;69.32;98151.56;12204735;19;20010;-80
2023/03/08 03:17:21;;;;;;;14.10;6.75;;;;;;;5.53;68.49;98153.94;12221580;19;20006;-80
2023/03/08 03:21:23;;;;;;;13.60;6.53;;;;;;;5.58;68.23;98150.47;12219848;19;20003;-79
2023/03/08 03:25:25;;;;;;;11.07;5.43;;;;;;;5.57;67.96;98148.81;12197969;19;20461;-79
2023/03/08 03:29:28;;;;;;;13.02;5.70;;;;;;;5.55;67.85;98140.88;12215714;19;20045;-80
2023/03/08 03:33:40;;;;;;;11.30;5.18;;;;;;;5.57;67.53;98144.19;12209859;19;20485;-80
2023/03/08 03:37:41;;;;;;;11.77;6.22;;;;;;;5.55;67.52;98140.06;12195086;19;20010;-80
2023/03/08 03:41:43;;;;;;;12.10;5.90;;;;;;;5.61;67.72;98145.31;12217816;19;20053;-80
2023/03/08 03:45:57;;;;;;;10.82;5.43;;;;;;;5.69;67.92;98146.75;12214923;19;20023;-80
2023/03/08 03:50:00;;;;;;;12.23;5.55;;;;;;;5.69;67.79;98141.28;12194616;19;20015;-79
2023/03/08 03:54:07;;;;;;;14.65;6.05;;;;;;;5.69;68.04;98133.91;12213944;19;20011;-79
2023/03/08 03:58:11;;;;;;;10.45;5.75;;;;;;;5.69;68.39;98131.19;12217284;19;20022;-79
2023/03/08 04:02:13;;;;;;;13.38;6.13;;;;;;;5.68;68.36;98134.16;12204634;19;20010;-79
2023/03/08 04:06:27;;;;;;;13.07;5.53;;;;;;;5.67;68.55;98135.25;12217650;19;20101;-80
2023/03/08 04:10:30;;;;;;;15.57;6.47;;;;;;;5.61;67.85;98117.97;12192247;19;20006;-79
2023/03/08 04:14:32;;;;;;;13.00;5.97;;;;;;;5.60;68.31;98118.25;12210381;19;20002;-79
2023/03/08 04:18:34;;;;;;;11.73;5.97;;;;;;;5.57;68.37;98110.56;12211841;19;20017;-79
2023/03/08 04:22:36;;;;;;;12.02;6.10;;;;;;;5.56;68.10;98109.75;12190279;19;20716;-80
2023/03/08 04:26:46;;;;;;;14.77;7.35;;;;;;;5.56;68.06;98103.44;12212077;19;20082;-80
2023/03/08 04:30:51;;;;;;;10.88;5.38;;;;;;;5.54;67.88;98100.16;12213983;19;20980;-79
2023/03/08 04:34:54;;;;;;;12.25;6.63;;;;;;;5.44;67.46;98096.25;12190644;19;20023;-80
2023/03/08 04:38:59;;;;;;;11.38;6.13;;;;;;;5.40;68.01;98094.28;12212928;19;20851;-79
2023/03/08 04:43:02;;;;;;;15.90;6.47;;;;;;;5.41;68.07;98091.31;12212071;19;20445;-79
2023/03/08 04:47:11;;;;;;;13.75;6.25;;;;;;;5.38;68.37;98088.25;12192532;19;20014;-80
2023/03/08 04:51:19;;;;;;;13.30;5.63;;;;;;;5.35;68.35;98080.56;12209369;19;20527;-80
2023/03/08 04:55:21;;;;;;;14.77;6.78;;;;;;;5.31;68.26;98077.53;12188360;19;20003;-79
2023/03/08 04:59:23;;;;;;;15.47;6.10;;;;;;;5.26;68.23;98077.47;12209583;19;20079;-80
2023/03/08 05:03:29;;;;;;;15.43;6.53;;;;;;;5.17;67.87;98079.03;12211718;19;20010;-80
2023/03/08 05:07:31;;;;;;;15.48;6.07;;;;;;;5.14;68.29;98077.63;12188026;19;20066;-78
2023/03/08 05:11:35;;;;;;;11.88;6.30;;;;;;;5.15;68.29;98079.28;12208187;19;20031;-80
2023/03/08 05:15:37;;;;;;;14.18;5.05;;;;;;;5.11;68.33;98064.50;12207515;19;20014;-79
2023/03/08 05:19:39;;;;;;;13.23;5.97;;;;;;;5.13;68.09;98061.50;12192756;19;20079;-78
2023/03/08 05:23:42;;;;;;;13.88;6.50;;;;;;;5.12;68.30;98060.69;12208917;19;20031;-80
2023/03/08 05:27:45;;;;;;;14.18;6.43;;;;;;;5.13;68.02;98061.50;12208895;19;20002;-80
2023/03/08 05:31:49;;;;;;;13.37;5.97;;;;;;;5.13;68.15;98059.59;12189455;19;20033;-80
2023/03/08 05:35:53;;;;;;;11.15;5.70;;;;;;;5.09;67.82;98046.75;12210154;19;20010;-81
2023/03/08 05:39:58;;;;;;;15.63;6.22;;;;;;;5.02;67.95;98045.00;12206231;19;20123;-78
2023/03/08 05:44:01;;;;;;;15.68;6.47;;;;;;;5.06;68.11;98045.34;12178284;19;20359;-77
2023/03/08 05:48:05;;;;;;;11.18;6.13;;;;;;;5.05;68.04;98040.13;12202892;19;20017;-77
2023/03/08 05:52:09;;;;;;;11.30;6.30;;;;;;;5.03;67.96;98030.31;12199977;19;20015;-77
2023/03/08 05:56:22;;;;;;;12.10;6.00;;;;;;;4.99;68.49;98034.59;12183832;19;20038;-78
2023/03/08 06:00:34;;;;;;;12.63;5.63;;;;;;;4.84;72.74;98026.25;12220625;19;20014;-81
2023/03/08 06:04:37;;;;;;;14.13;6.43;;;;;;;4.77;76.35;98042.03;12194994;19;20010;-79
2023/03/08 06:08:41;;;;;;;14.88;6.55;;;;;;;4.66;80.15;98034.78;12214694;19;20776;-80
2023/03/08 06:12:43;;;;;;;14.65;6.45;;;;;;;4.49;83.12;98034.84;12211295;19;20018;-80
2023/03/08 06:16:51;;;;;;;11.70;5.90;;;;;;;4.41;86.68;98032.59;12203041;19;20006;-78
2023/03/08 06:21:06;;;;;;;15.52;7.07;;;;;;;4.38;87.03;98020.28;12218949;19;20074;-79
2023/03/08 06:25:09;;;;;;;17.08;6.10;;;;;;;4.36;90.13;97997.06;12214758;19;20014;-78
2023/03/08 06:29:12;;;;;;;13.82;6.38;;;;;;;4.26;90.32;97992.31;12192185;19;20046;-79
2023/03/08 06:33:20;;;;;;;14.68;6.90;;;;;;;4.24;90.39;98005.38;12218136;19;20003;-79
2023/03/08 06:37:24;;;;;;;15.15;6.65;;;;;;;4.11;93.65;97999.22;12192224;19;20002;-77
2023/03/08 06:41:25;;;;;;;17.08;7.07;;;;;;;4.11;93.35;98003.84;12209541;19;20002;-77
2023/03/08 06:45:30;;;;;;;17.10;7.15;;;;;;;4.14;94.56;97999.81;12214084;19;20083;-78
2023/03/08 06:49:32;;;;;;;10.43;4.87;;;;;;;4.17;94.08;97983.75;12189488;19;20023;-78
2023/03/08 06:53:36;;;;;;;17.40;6.75;;;;;;;4.20;95.06;97975.06;12210560;19;20006;-78
2023/03/08 06:57:39;;;;;;;14.93;6.70;;;;;;;4.26;94.19;97957.69;12207642;19;20019;-78
2023/03/08 07:01:42;;;;;;;10.80;5.15;;;;;;;4.33;94.13;97960.22;12181416;19;20023;-78
2023/03/08 07:05:45;;;;;;;15.68;6.60;;;;;;;4.36;93.45;97954.25;12182052;19;20034;-80
2023/03/08 07:09:48;;;;;;;15.38;6.70;;;;;;;4.37;94.38;97939.53;12207116;19;20081;-78
2023/03/08 07:13:51;;;;;;;14.73;7.38;;;;;;;4.39;94.09;97947.47;12187942;19;20002;-78
2023/03/08 07:17:55;;;;;;;16.80;6.97;;;;;;;4.43;93.76;97932.22;12209767;19;20006;-78
2023/03/08 07:21:57;;;;;;;15.25;6.15;;;;;;;4.46;91.61;97932.56;12232340;19;20030;-78
2023/03/08 07:26:04;;;;;;;13.40;6.55;;;;;;;4.55;91.01;97931.03;12221651;19;20013;-78
2023/03/08 07:30:08;;;;;;;13.23;6.93;;;;;;;4.58;88.67;97926.97;12234444;19;20097;-78
2023/03/08 07:34:11;;;;;;;17.48;7.40;;;;;;;4.54;88.62;97913.00;12212397;19;20006;-78
2023/03/08 07:38:13;;;;;;;14.48;7.65;;;;;;;4.57;89.85;97917.13;12187674;19;20078;-78
2023/03/08 07:42:16;;;;;;;17.00;7.80;;;;;;;4.48;94.06;97907.75;12209853;19;20125;-79
2023/03/08 07:46:26;;;;;;;17.98;7.60;;;;;;;4.22;98.45;97906.66;12191933;19;20030;-80
2023/03/08 07:50:30;;;;;;;18.83;8.40;;;;;;;3.96;100.00;97889.19;12215632;19;20002;-78
2023/03/08 07:54:33;;;;;;;15.82;7.50;;;;;;;3.81;100.00;97881.66;12212745;19;20002;-81
2023/03/08 07:58:35;;;;;;;19.63;8.43;;;;;;;3.70;100.00;97871.69;12192470;19;20020;-80
2023/03/08 08:02:38;;;;;;;20.80;7.85;;;;;;;3.73;100.00;97854.84;12209086;19;20361;-79
2023/03/08 08:06:40;;;;;;;17.13;8.37;;;;;;;3.72;100.00;97843.13;12209501;19;20017;-79
2023/03/08 08:10:43;;;;;;;16.65;8.35;;;;;;;3.63;100.00;97831.03;12186835;19;20003;-79
2023/03/08 08:14:45;;;;;;;19.60;8.00;;;;;;;3.61;100.00;97844.91;12206134;19;20102;-78
2023/03/08 08:18:51;;;;;;;16.55;8.20;;;;;;;3.58;100.00;97831.78;12203618;19;20010;-78
2023/03/08 08:22:54;;;;;;;18.48;9.57;;;;;;;3.53;100.00;97823.53;12183320;19;20507;-78
2023/03/08 08:26:56;;;;;;;19.63;9.75;;;;;;;3.62;100.00;97816.56;12205354;19;20614;-79
2023/03/08 08:31:06;;;;;;;24.65;9.70;;;;;;;3.79;100.00;97802.06;12206190;19;20013;-79
2023/03/08 08:35:09;;;;;;;19.77;9.02;;;;;;;3.76;100.00;97780.78;12182958;19;20092;-78
2023/03/08 08:39:10;;;;;;;15.55;7.40;;;;;;;3.69;100.00;97774.69;12206290;19;20024;-78
2023/03/08 08:43:14;;;;;;;27.90;10.68;;;;;;;3.69;100.00;97767.38;12210301;19;20009;-78
2023/03/08 08:47:16;;;;;;;;;;;;;;;3.69;100.00;97769.25;12199651;19;20013;-77
2023/03/08 08:51:20;;;;;;;18.25;9.13;;;;;;;3.76;100.00;97756.28;12269451;19;21455;-80
2023/03/08 08:55:21;;;;;;;18.52;9.40;;;;;;;3.75;100.00;97749.16;12232435;19;20033;-81
2023/03/08 08:59:24;;;;;;;17.17;9.18;;;;;;;3.88;100.00;97737.88;12206230;19;20023;-77
2023/03/08 09:03:27;;;;;;;20.52;9.20;;;;;;;4.10;100.00;97722.28;12202377;19;20006;-79
2023/03/08 09:07:29;;;;;;;17.93;9.87;;;;;;;4.28;100.00;97717.50;12180317;19;20015;-78
2023/03/08 09:11:31;;;;;;;20.70;9.93;;;;;;;4.42;100.00;97707.81;12200269;19;20007;-77
2023/03/08 09:15:49;;;;;;;21.83;10.07;;;;;;;4.59;100.00;97704.09;12205859;19;20854;-79
2023/03/08 09:19:51;;;;;;;20.30;9.73;;;;;;;4.60;100.00;97713.94;12181862;19;20091;-80
2023/03/08 09:23:59;;;;;;;23.13;10.50;;;;;;;4.69;100.00;97690.53;12205157;19;20473;-79
2023/03/08 09:28:00;;;;;;;20.02;9.63;;;;;;;4.77;100.00;97699.03;12206246;19;20464;-78
2023/03/08 09:32:05;;;;;;;19.40;10.05;;;;;;;4.83;100.00;97701.81;12183047;19;20023;-80
2023/03/08 09:36:08;;;;;;;21.40;10.05;;;;;;;4.71;100.00;97712.91;12207689;19;20111;-79
2023/03/08 09:40:26;;;;;;;21.73;10.50;;;;;;;4.59;100.00;97699.47;12209055;19;20006;-80
2023/03/08 09:44:42;;;;;;;21.23;10.50;;;;;;;4.61;100.00;97702.75;12185309;19;20086;-79
2023/03/08 09:48:48;;;;;;;24.50;10.85;;;;;;;4.61;100.00;97677.38;12209026;19;20010;-80
2023/03/08 09:53:06;;;;;;;20.17;10.40;;;;;;;4.64;100.00;97664.06;12193799;19;20045;-80
2023/03/08 09:57:15;;;;;;;17.42;10.02;;;;;;;4.54;100.00;97662.06;12204779;19;20418;-79
2023/03/08 10:01:25;;;;;;;17.23;8.13;;;;;;;4.52;100.00;97652.50;12181343;19;20721;-78
2023/03/08 10:05:39;;;;;;;16.15;8.15;;;;;;;4.62;100.00;97654.47;12206372;19;20030;-79
2023/03/08 10:09:51;;;;;;;18.48;9.63;;;;;;;4.65;100.00;97648.50;12205398;19;20014;-80
2023/03/08 10:13:55;;;;;;;14.05;7.20;;;;;;;4.69;100.00;97627.78;12185780;19;20460;-80
2023/03/08 10:18:30;;;;;;;13.45;7.13;;;;;;;4.74;100.00;97627.81;12204786;19;20014;-79
2023/03/08 10:22:38;;;;;;;13.90;6.70;;;;;;;4.73;100.00;97631.59;12182034;19;20079;-79
2023/03/08 10:26:41;;;;;;;12.52;7.05;;;;;;;4.74;100.00;97627.81;12205764;19;20018;-79
2023/03/08 10:30:49;;;;;;;14.13;6.85;;;;;;;4.84;100.00;97618.84;12219241;19;20010;-79
2023/03/08 10:35:00;;;;;;;11.45;6.00;;;;;;;4.90;100.00;97606.84;12183026;19;20011;-77
2023/03/08 10:39:10;;;;;;;11.15;5.85;;;;;;;4.77;100.00;97619.09;12206475;19;20558;-77
2023/03/08 10:43:31;;;;;;;9.20;5.18;;;;;;;4.88;100.00;97612.59;12205669;19;20006;-78
2023/03/08 10:47:35;;;;;;;11.20;6.18;;;;;;;4.91;100.00;97597.59;12198722;19;20003;-79
2023/03/08 10:51:36;;;;;;;11.35;5.88;;;;;;;5.03;100.00;97599.00;12217943;19;20031;-77
2023/03/08 10:55:49;;;;;;;10.75;5.53;;;;;;;5.01;100.00;97583.97;12191571;19;20014;-77
2023/03/08 10:59:52;;;;;;;12.57;5.93;;;;;;;4.99;100.00;97565.13;12218392;19;20081;-79
2023/03/08 11:04:05;;;;;;;12.43;6.25;;;;;;;5.00;100.00;97561.31;12220849;19;20373;-76
2023/03/08 11:08:17;;;;;;;10.20;5.18;;;;;;;4.92;100.00;97553.66;12206693;19;20014;-78
2023/03/08 11:12:22;;;;;;;10.45;5.82;;;;;;;4.90;100.00;97533.19;12221503;19;20010;-79
2023/03/08 11:16:47;;;;;;;12.27;6.00;;;;;;;4.98;100.00;97533.47;12195719;19;19998;-77
2023/03/08 11:20:59;;;;;;;14.13;6.00;;;;;;;5.06;100.00;97531.28;12211481;19;20013;-79
2023/03/08 11:25:08;;;;;;;13.20;6.38;;;;;;;5.08;100.00;97515.47;12210671;19;20023;-78
2023/03/08 11:29:28;;;;;;;12.20;5.97;;;;;;;5.12;100.00;97535.69;12192351;19;20504;-78
2023/03/08 11:33:46;;;;;;;14.50;7.15;;;;;;;5.16;100.00;97531.34;12212769;19;20030;-78
2023/03/08 11:37:58;;;;;;;14.57;7.22;;;;;;;5.29;100.00;97513.59;12190998;19;20024;-77
2023/03/08 11:42:23;;;;;;;16.05;7.85;;;;;;;5.39;100.00;97524.53;12212641;19;20123;-79
2023/03/08 11:46:51;;;;;;;14.80;7.55;;;;;;;5.43;100.00;97515.50;12186531;19;20014;-78
2023/03/08 11:51:05;;;;;;;15.27;7.63;;;;;;;5.55;100.00;97508.97;12206634;19;20007;-78
2023/03/08 11:55:33;;;;;;;15.18;8.05;;;;;;;5.64;100.00;97501.84;12210392;19;20014;-77
2023/03/08 11:59:41;;;;;;;19.05;9.35;;;;;;;5.58;100.00;97502.94;12200638;19;20027;-78
2023/03/08 12:03:47;;;;;;;16.58;9.02;;;;;;;5.56;100.00;97495.03;12222252;19;20046;-78
2023/03/08 12:08:10;;;;;;;17.75;9.60;;;;;;;5.61;100.00;97495.03;12181265;19;20006;-79
2023/03/08 12:12:30;;;;;;;19.77;9.80;;;;;;;5.57;100.00;97487.66;12210180;19;21170;-78
2023/03/08 12:16:49;;;;;;;20.33;10.18;;;;;;;5.64;100.00;97491.75;12184190;19;20363;-78
2023/03/08 12:21:07;;;;;;;23.05;11.23;;;;;;;5.59;100.00;97485.44;12204776;19;20092;-77
2023/03/08 12:25:19;;;;;;;22.55;11.60;;;;;;;5.60;100.00;97476.19;12208028;19;20484;-78
2023/03/08 12:29:34;;;;;;;22.95;11.75;;;;;;;5.62;100.00;97479.44;12184955;19;20030;-78
2023/03/08 12:33:36;;;;;;;24.75;11.48;;;;;;;5.66;100.00;97475.91;12201403;19;20018;-78
2023/03/08 12:37:38;;;;;;;24.13;12.10;;;;;;;5.80;100.00;97476.16;12180512;19;20018;-77
2023/03/08 12:41:41;;;;;;;24.35;11.38;;;;;;;5.86;100.00;97464.13;12199184;19;20023;-77
2023/03/08 12:45:44;;;;;;;21.52;11.35;;;;;;;5.95;100.00;97475.34;12191048;19;20018;-78
2023/03/08 12:49:55;;;;;;;24.48;11.98;;;;;;;6.01;100.00;97460.56;12171100;19;20023;-78
2023/03/08 12:54:01;;;;;;;20.40;10.90;;;;;;;6.06;100.00;97462.44;12188080;19;20007;-78
2023/03/08 12:58:16;;;;;;;23.88;11.38;;;;;;;6.12;100.00;97445.75;12195705;19;20006;-78
2023/03/08 13:02:29;;;;;;;24.70;11.67;;;;;;;6.19;100.00;97445.47;12177554;19;20006;-78
2023/03/08 13:06:51;;;;;;;18.88;10.52;;;;;;;6.30;100.00;97449.78;12200694;19;20010;-78
2023/03/08 13:10:59;;;;;;;19.63;10.65;;;;;;;6.40;100.00;97448.94;12178011;19;20034;-79
2023/03/08 13:15:12;;;;;;;19.95;10.50;;;;;;;6.54;100.00;97440.91;12191361;19;20024;-77
2023/03/08 13:19:23;;;;;;;20.65;11.63;;;;;;;6.58;100.00;97431.88;12184746;19;20002;-78
2023/03/08 13:23:37;;;;;;;20.73;11.98;;;;;;;6.62;100.00;97437.59;12194688;19;20035;-78
2023/03/08 13:27:51;;;;;;;26.50;11.43;;;;;;;6.67;100.00;97440.31;12198118;19;20496;-77
2023/03/08 13:31:54;;;;;;;20.27;10.60;;;;;;;6.70;100.00;97447.16;12179427;19;20007;-78
2023/03/08 13:36:20;;;;;;;24.02;10.45;;;;;;;6.76;100.00;97440.53;12197070;19;20646;-78
2023/03/08 13:40:24;;;;;;;17.95;8.75;;;;;;;6.86;100.00;97451.41;12178671;19;20071;-78
2023/03/08 13:44:26;;;;;;;19.60;9.52;;;;;;;7.01;100.00;97445.00;12196470;19;20034;-78
2023/03/08 13:48:33;;;;;;;15.53;8.60;;;;;;;7.13;100.00;97448.22;12205581;19;20359;-78
2023/03/08 13:52:38;;;;;;;22.55;10.20;;;;;;;7.24;100.00;97446.22;12181023;19;20229;-78
2023/03/08 13:56:40;;;;;;;14.38;8.50;;;;;;;7.33;100.00;97457.38;12203283;19;20057;-78
2023/03/08 14:00:55;;;;;;;13.60;7.47;;;;;;;7.42;100.00;97450.19;12201295;19;20050;-78
2023/03/08 14:04:58;;;;;;;17.23;8.30;;;;;;;7.50;100.00;97446.84;12180147;19;20018;-78
2023/03/08 14:09:02;;;;;;;20.63;9.30;;;;;;;7.59;100.00;97439.63;12199448;19;20015;-77
2023/03/08 14:13:13;;;;;;;18.98;9.13;;;;;;;7.69;100.00;97435.97;12199523;19;20019;-79
2023/03/08 14:17:22;;;;;;;21.08;9.65;;;;;;;7.86;100.00;97427.31;12182669;19;20014;-77
2023/03/08 14:21:28;;;;;;;19.70;9.07;;;;;;;7.99;100.00;97413.69;12211807;19;20026;-77
2023/03/08 14:25:32;;;;;;;19.83;9.45;;;;;;;8.21;100.00;97407.69;12186712;19;20013;-78
2023/03/08 14:29:35;;;;;;;19.02;8.95;;;;;;;8.36;100.00;97414.91;12211859;19;20010;-78
2023/03/08 14:33:42;;;;;;;20.35;9.77;;;;;;;8.45;100.00;97417.84;12219141;19;20038;-78
2023/03/08 14:37:45;;;;;;;16.35;8.23;;;;;;;8.52;100.00;97412.00;12234097;19;20003;-80
2023/03/08 14:41:48;;;;;;;16.23;8.48;;;;;;;8.61;100.00;97408.28;12272153;19;20011;-80
2023/03/08 14:45:53;;;;;;;14.35;6.97;;;;;;;8.73;100.00;97398.81;12224827;19;20356;-79
2023/03/08 14:50:01;;;;;;;16.70;7.60;;;;;;;8.87;100.00;97399.69;12183388;19;20018;-79
2023/03/08 14:54:20;;;;;;;11.25;5.53;;;;;;;8.91;100.00;97378.75;12208429;19;19999;-78
2023/03/08 14:58:26;;;;;;;12.52;5.43;;;;;;;9.02;100.00;97369.25;12186846;19;20074;-79
2023/03/08 15:02:28;;;;;;;13.27;6.47;;;;;;;9.16;100.00;97362.97;12204622;19;20003;-79
2023/03/08 15:06:33;;;;;;;13.05;6.80;;;;;;;9.22;100.00;97359.03;12206696;19;20082;-79
2023/03/08 15:10:38;;;;;;;14.35;6.55;;;;;;;9.28;100.00;97346.81;12181842;19;20029;-78
2023/03/08 15:14:41;;;;;;;11.50;5.80;;;;;;;9.33;100.00;97327.50;12200056;19;20034;-78
2023/03/08 15:18:43;;;;;;;9.47;5.23;;;;;;;9.36;100.00;97313.16;12210151;19;20017;-79
2023/03/08 15:22:51;;;;;;;9.07;4.73;;;;;;;9.43;100.00;97321.84;12184904;19;20021;-78
2023/03/08 15:26:54;;;;;;;8.77;4.55;;;;;;;9.43;100.00;97327.34;12207948;19;20062;-80
2023/03/08 15:30:57;;;;;;;7.60;3.30;;;;;;;9.47;100.00;97336.59;12203605;19;19999;-78
2023/03/08 15:34:59;;;;;;;6.63;3.35;;;;;;;9.50;100.00;97338.72;12187168;19;20300;-79
2023/03/08 15:39:03;;;;;;;6.95;3.47;;;;;;;9.58;100.00;97332.53;12209008;19;20034;-78
2023/03/08 15:43:05;;;;;;;7.63;4.10;;;;;;;9.64;100.00;97326.94;12205934;19;22129;-78
2023/03/08 15:47:08;;;;;;;6.00;3.50;;;;;;;9.66;100.00;97320.00;12188690;19;20010;-78
2023/03/08 15:51:19;;;;;;;7.18;3.72;;;;;;;9.71;100.00;97332.84;12209682;19;20015;-78
2023/03/08 15:55:24;;;;;;;9.05;4.45;;;;;;;9.79;100.00;97343.16;12188180;19;20441;-79
2023/03/08 15:59:26;;;;;;;5.78;3.30;;;;;;;9.79;100.00;97363.22;12207962;19;20066;-78
2023/03/08 16:03:28;;;;;;;6.45;3.63;;;;;;;9.86;100.00;97351.00;12214547;19;20003;-80
2023/03/08 16:07:32;;;;;;;9.07;3.65;;;;;;;9.88;100.00;97343.25;12192035;19;20023;-79
2023/03/08 16:11:33;;;;;;;6.00;3.30;;;;;;;9.91;100.00;97343.47;12212705;19;20373;-79
2023/03/08 16:15:38;;;;;;;6.10;3.10;;;;;;;9.95;100.00;97336.22;12209714;19;20031;-80
2023/03/08 16:19:42;;;;;;;6.88;3.55;;;;;;;9.95;100.00;97340.91;12189901;19;20069;-80
2023/03/08 16:23:44;;;;;;;7.33;3.77;;;;;;;9.98;100.00;97354.84;12209506;19;20457;-79
2023/03/08 16:27:45;;;;;;;6.05;3.25;;;;;;;10.05;100.00;97348.94;12206851;19;20374;-79
2023/03/08 16:31:47;;;;;;;5.90;3.58;;;;;;;10.12;100.00;97340.28;12192142;19;20007;-81
2023/03/08 16:35:51;;;;;;;8.18;3.22;;;;;;;10.13;100.00;97347.41;12228400;19;20006;-80
2023/03/08 16:39:58;;;;;;;6.18;3.72;;;;;;;10.14;100.00;97344.38;12215532;19;20267;-79
2023/03/08 16:44:00;;;;;;;7.38;3.13;;;;;;;10.20;100.00;97340.38;12174730;19;20007;-78
2023/03/08 16:48:03;;;;;;;9.10;3.33;;;;;;;10.22;100.00;97338.13;12200791;19;20019;-78
2023/03/08 16:52:06;;;;;;;5.65;3.30;;;;;;;10.17;100.00;97326.41;12205901;19;20007;-79
2023/03/08 16:56:09;;;;;;;5.22;2.70;;;;;;;10.14;100.00;97332.53;12181719;19;20006;-78
2023/03/08 17:00:12;;;;;;;6.35;3.50;;;;;;;10.18;100.00;97330.81;12217366;19;20006;-77
2023/03/08 17:04:14;;;;;;;5.30;3.15;;;;;;;10.15;100.00;97343.25;12227298;19;20010;-77
2023/03/08 17:08:17;;;;;;;5.13;2.83;;;;;;;10.09;100.00;97346.41;12205021;19;20006;-77
2023/03/08 17:12:18;;;;;;;8.32;3.28;;;;;;;10.10;100.00;97342.53;12224205;19;20014;-77
2023/03/08 17:16:26;;;;;;;5.25;2.60;;;;;;;10.10;100.00;97339.78;12200498;19;20006;-77
2023/03/08 17:20:28;;;;;;;6.05;3.03;;;;;;;10.09;100.00;97341.72;12197687;19;20456;-78
2023/03/08 17:24:31;;;;;;;7.30;3.08;;;;;;;10.10;100.00;97340.59;12194631;19;20081;-78
2023/03/08 17:28:33;;;;;;;10.77;4.13;;;;;;;10.05;100.00;97348.94;12169994;19;20006;-78
2023/03/08 17:32:36;;;;;;;5.38;3.00;;;;;;;10.02;100.00;97363.31;12197427;19;20007;-81
2023/03/08 17:36:38;;;;;;;4.63;2.40;;;;;;;9.97;100.00;97364.25;12202451;19;20016;-79
2023/03/08 17:40:41;;;;;;;3.22;1.80;;;;;;;9.88;100.00;97360.56;12177055;19;20010;-77
2023/03/08 17:44:43;;;;;;;5.63;2.90;;;;;;;9.81;100.00;97390.41;12198003;19;20019;-78
2023/03/08 17:48:45;;;;;;;5.90;2.00;;;;;;;9.75;100.00;97375.13;12200770;19;20453;-77
2023/03/08 17:52:46;;;;;;;5.82;2.05;;;;;;;9.69;100.00;97373.59;12176983;19;20042;-79
2023/03/08 17:56:49;;;;;;;5.43;1.70;;;;;;;9.61;100.00;97364.13;12212849;19;20006;-78
2023/03/08 18:00:51;;;;;;;4.30;2.97;;;;;;;9.53;100.00;97370.31;12210798;19;20019;-79
2023/03/08 18:04:54;;;;;;;4.55;1.75;;;;;;;9.47;100.00;97388.00;12190822;19;20062;-78
2023/03/08 18:08:57;;;;;;;4.18;1.67;;;;;;;9.49;100.00;97394.84;12211919;19;20003;-77
2023/03/08 18:12:59;;;;;;;3.65;1.85;;;;;;;9.48;100.00;97395.94;12211917;19;20090;-78
2023/03/08 18:17:01;;;;;;;7.95;2.42;;;;;;;9.46;100.00;97420.19;12191010;19;20090;-78
2023/03/08 18:21:03;;;;;;;9.85;4.15;;;;;;;9.46;100.00;97424.84;12211362;19;20018;-77
2023/03/08 18:25:15;;;;;;;6.83;3.00;;;;;;;9.44;100.00;97432.59;12213737;19;20006;-78
2023/03/08 18:29:18;;;;;;;7.20;3.53;;;;;;;9.45;100.00;97439.72;12186743;19;20006;-78
2023/03/08 18:33:21;;;;;;;7.63;3.17;;;;;;;9.45;100.00;97428.72;12222348;19;20095;-78
2023/03/08 18:37:23;;;;;;;6.03;2.70;;;;;;;9.42;100.00;97432.88;12188013;19;20051;-78
2023/03/08 18:41:28;;;;;;;;;;;;;;;9.38;100.00;97426.38;12208010;19;20074;-78
2023/03/08 18:45:29;;;;;;;7.57;2.90;;;;;;;9.40;100.00;97421.38;12207920;19;19915;-79
2023/03/08 18:49:31;;;;;;;6.78;3.75;;;;;;;9.37;100.00;97433.00;12189514;19;20039;-79
2023/03/08 18:53:35;;;;;;;5.22;3.10;;;;;;;9.38;100.00;97420.06;12210227;19;20017;-79
2023/03/08 18:57:39;;;;;;;7.78;3.03;;;;;;;9.36;100.00;97418.41;12213086;19;20019;-79